KEHR

Henderson City-County Airport

Henderson, Kentucky, USA
METAR KEHR 160956Z AUTO 20008KT 10SM CLR 00/M03 A3012 RMK AO2 SLP213 T00001028 FZRANO
Observed Flight Rules
Dec-16 @ 09:56 UTC (56 minutes ago) Visual Flight Rules
Wind Visibility Clouds
200° at 8 knots 10 miles
  • Clear skies
Temperatures Readings
Current 0°C / 32°F
Dewpoint -3°C / 27°F
Humidity 80%
Altimeter 30.12" Hg
Pressure 1021.3 hPa
Elevation 117
METAR KEHR 160956Z AUTO 20008KT 10SM CLR 00/M03 A3012 RMK AO2 SLP213 T00001028 FZRANO
Observed Flight Rules
Dec-16 @ 09:56 UTC
(56 minutes ago)
VFR
Wind Visibility
200° at 8 knots 10 miles
Clouds
  • Clear skies
Temperature Dewpoint
0°C / 32°F -3°C / 27°F
Humidity Altimeter Pressure
80% 30.12" Hg 1021.3 hPa